Vandenberg Range, California
Current Conditions -  °F | °C
As of 12:55 PM on Sunday 23 Nov 2014 (Local Time) from KVBG Reporting Station
Clear Clear  
Wind Chill: 71°   Ceiling: Unl
Heat Index: 71°   Visibility: 10mi
Dew Point: 34°   Wind: 15mph
Humidity: 26%   Direction: 10°N
Pressure: 30.2"   Gusts: 24mph
Location:  34.75°N, 120.56°W
Report Text: KVBG 232055Z AUTO 01013G21KT 10SM CLR 22/01 A3020 RMK AO2 SLP216 T02170011 58023 TSNO $
Loading
Personal Weather Stations






























Interactive Weather Map New forecast layout! Learn more

10-Day Weather Forecast

Advertisements
Track Severe Weather on mobile